Groesbeek, Netherlands
Current Conditions -  °F | °C
As of 2:55 AM on Tuesday 21 Oct 2014 (Local Time) from EHVK Reporting Station
Overcast Overcast  
Wind Chill: 54°   Ceiling: 8600
Heat Index: 54°   Visibility: 6mi
Dew Point: 52°   Wind: 14mph
Humidity: 94%   Direction: 230°SW
Pressure: 29.85"   Gusts: NA
Location:  51.78°N, 5.94°E
Report Text: EHVK 210055Z AUTO 23012KT 9999 OVC086 12/11 Q1011 BLU
Loading
Personal Weather Stations






























Interactive Weather Map
Tropical Storm Tracking
New forecast layout! Learn more

10-Day Weather Forecast

Advertisements
Track Severe Weather on mobile